createdAt,value
2018-04-06T00:01:40.727Z,84.77
2018-04-06T00:04:08.967Z,84.76
2018-04-06T00:06:37.975Z,85.70
2018-04-06T00:09:07.369Z,85.88
2018-04-06T00:11:35.634Z,86.07
2018-04-06T00:14:03.883Z,85.68
2018-04-06T00:16:32.120Z,85.86
2018-04-06T00:19:00.432Z,86.25
2018-04-06T00:21:28.689Z,85.93
2018-04-06T00:23:57.765Z,85.84
2018-04-06T00:26:26.036Z,87.07
2018-04-06T00:28:55.068Z,86.30
2018-04-06T00:31:23.324Z,87.23
2018-04-06T00:33:51.624Z,87.06
2018-04-06T00:36:20.652Z,87.12
2018-04-06T00:38:48.914Z,87.65
2018-04-06T00:41:18.502Z,87.64
2018-04-06T00:43:46.749Z,88.06
2018-04-06T00:46:14.992Z,88.42
2018-04-06T00:48:43.295Z,87.91
2018-04-06T00:51:11.541Z,88.92
2018-04-06T00:53:48.688Z,88.69
2018-04-06T00:56:17.688Z,89.54
2018-04-06T00:58:45.937Z,89.18
2018-04-06T01:01:14.174Z,88.18
2018-04-06T01:03:43.198Z,87.99
2018-04-06T01:06:11.433Z,88.46
2018-04-06T01:08:39.676Z,88.13
2018-04-06T01:11:07.896Z,88.05
2018-04-06T01:13:36.136Z,88.67
2018-04-06T01:16:05.140Z,88.11
2018-04-06T01:18:34.351Z,87.44
2018-04-06T01:21:03.341Z,87.82
2018-04-06T01:23:31.605Z,87.72
2018-04-06T01:25:59.860Z,88.18
2018-04-06T01:28:28.112Z,87.70
2018-04-06T01:30:56.370Z,88.00
2018-04-06T01:33:24.625Z,88.31
2018-04-06T01:35:53.658Z,87.54
2018-04-06T01:38:22.652Z,87.34
2018-04-06T01:40:50.919Z,86.81
2018-04-06T01:43:19.157Z,87.78
2018-04-06T01:45:48.165Z,87.88
2018-04-06T01:48:16.404Z,88.55
2018-04-06T01:50:44.653Z,89.28
2018-04-06T01:53:12.896Z,88.52
2018-04-06T01:55:41.149Z,88.69
2018-04-06T01:58:10.142Z,89.01
2018-04-06T02:00:38.421Z,89.09
2018-04-06T02:03:06.652Z,88.36
2018-04-06T02:05:34.892Z,88.62
2018-04-06T02:08:03.128Z,89.17
2018-04-06T02:10:31.386Z,88.95
2018-04-06T02:12:59.621Z,88.72
2018-04-06T02:15:27.894Z,88.47
2018-04-06T02:17:56.125Z,89.28
2018-04-06T02:20:24.451Z,89.56
2018-04-06T02:22:53.440Z,90.12
2018-04-06T02:25:21.685Z,89.52
2018-04-06T02:27:49.920Z,89.61
2018-04-06T02:30:18.177Z,90.28
2018-04-06T02:32:46.495Z,89.84
2018-04-06T02:35:16.102Z,90.53
2018-04-06T02:37:44.341Z,90.40
2018-04-06T02:40:12.586Z,90.59
2018-04-06T02:42:40.826Z,90.67
2018-04-06T02:45:09.090Z,90.81
2018-04-06T02:47:38.084Z,90.89
2018-04-06T02:50:06.335Z,91.03
2018-04-06T02:52:34.582Z,91.16
2018-04-06T02:55:02.808Z,90.67
2018-04-06T02:57:31.058Z,90.20
2018-04-06T03:00:00.093Z,89.98
2018-04-06T03:02:28.381Z,90.20
2018-04-06T03:04:56.633Z,90.54
2018-04-06T03:07:25.872Z,90.53
2018-04-06T03:09:54.107Z,90.58
2018-04-06T03:12:22.380Z,90.97
2018-04-06T03:14:50.626Z,90.77
2018-04-06T03:17:19.630Z,90.69
2018-04-06T03:19:47.877Z,91.74
2018-04-06T03:22:16.130Z,92.08
2018-04-06T03:24:44.353Z,92.47
2018-04-06T03:27:12.616Z,92.26
2018-04-06T03:29:40.854Z,91.80
2018-04-06T03:32:09.865Z,92.20
2018-04-06T03:34:38.864Z,92.55
2018-04-06T03:37:07.885Z,92.22
2018-04-06T03:39:37.241Z,91.45
2018-04-06T03:42:06.277Z,91.37
2018-04-06T03:44:34.508Z,91.87
2018-04-06T03:47:03.593Z,91.80
2018-04-06T03:49:32.603Z,91.64
2018-04-06T03:52:01.633Z,91.58
2018-04-06T03:54:29.873Z,91.81
2018-04-06T03:56:58.761Z,92.49
2018-04-06T03:59:27.033Z,92.16
2018-04-06T04:01:55.313Z,92.34
2018-04-06T04:04:23.598Z,92.03
2018-04-06T04:06:51.884Z,91.86
2018-04-06T04:09:20.119Z,92.51
2018-04-06T04:11:48.381Z,91.97
2018-04-06T04:14:16.621Z,92.54
2018-04-06T04:16:45.608Z,92.65
2018-04-06T04:19:13.865Z,93.11
2018-04-06T04:21:42.118Z,93.51
2018-04-06T04:24:10.348Z,93.50
2018-04-06T04:26:38.601Z,93.11
2018-04-06T04:29:06.845Z,93.38
2018-04-06T04:31:35.072Z,93.20
2018-04-06T04:34:03.325Z,93.64
2018-04-06T04:36:31.601Z,93.87
2018-04-06T04:38:59.885Z,93.38
2018-04-06T04:41:28.127Z,93.82
2018-04-06T04:43:57.157Z,93.77
2018-04-06T04:46:25.450Z,93.52
2018-04-06T04:48:53.721Z,93.44
2018-04-06T04:51:22.001Z,93.37
2018-04-06T04:53:50.997Z,92.84
2018-04-06T04:56:20.004Z,93.05
2018-04-06T04:58:49.039Z,93.18
2018-04-06T05:01:17.275Z,93.00
2018-04-06T05:03:45.536Z,92.94
2018-04-06T05:06:13.791Z,93.06
2018-04-06T05:08:42.047Z,93.43
2018-04-06T05:11:10.282Z,93.02
2018-04-06T05:13:38.547Z,92.79
2018-04-06T05:16:06.862Z,92.08
2018-04-06T05:18:35.131Z,92.20
2018-04-06T05:21:04.120Z,92.64
2018-04-06T05:23:33.224Z,92.41
2018-04-06T05:26:01.525Z,91.56
2018-04-06T05:28:31.345Z,91.63
2018-04-06T05:31:00.361Z,91.18
2018-04-06T05:33:29.396Z,90.87
2018-04-06T05:35:57.676Z,90.84
2018-04-06T05:38:25.953Z,90.60
2018-04-06T05:40:55.164Z,90.29
2018-04-06T05:43:23.399Z,90.09
2018-04-06T05:45:51.732Z,89.52
2018-04-06T05:48:19.972Z,89.30
2018-04-06T05:50:48.234Z,89.00
2018-04-06T05:53:17.238Z,88.64
2018-04-06T05:55:45.714Z,88.20
2018-04-06T05:58:13.974Z,87.95
2018-04-06T06:00:42.297Z,87.42
2018-04-06T06:03:10.539Z,86.93
2018-04-06T06:05:38.792Z,85.53
2018-04-06T06:08:07.036Z,85.61
2018-04-06T06:10:35.281Z,83.83
2018-04-06T06:13:04.365Z,83.54
2018-04-06T06:15:32.639Z,82.67
2018-04-06T06:18:01.630Z,82.22
2018-04-06T06:20:29.884Z,81.22
2018-04-06T06:22:58.901Z,80.53
2018-04-06T06:25:27.202Z,79.67
2018-04-06T06:27:55.456Z,77.89
2018-04-06T06:30:23.717Z,79.41
2018-04-06T06:32:51.970Z,78.34
2018-04-06T06:35:20.281Z,76.04
2018-04-06T06:37:49.285Z,76.79
2018-04-06T06:40:18.392Z,76.07
2018-04-06T06:42:47.388Z,74.89
2018-04-06T06:45:15.702Z,75.93
2018-04-06T06:47:43.942Z,73.56
2018-04-06T06:50:12.199Z,72.89
2018-04-06T06:52:40.432Z,71.93
2018-04-06T06:55:08.676Z,70.90
2018-04-06T06:57:36.960Z,70.33
2018-04-06T07:00:05.207Z,67.99
2018-04-06T07:02:33.460Z,66.83
2018-04-06T07:05:01.704Z,65.95
2018-04-06T07:07:30.718Z,64.07
2018-04-06T07:09:59.833Z,64.43
2018-04-06T07:12:28.887Z,64.37
2018-04-06T07:14:57.188Z,65.34
2018-04-06T07:17:25.469Z,63.73
2018-04-06T07:19:53.979Z,64.26
2018-04-06T07:22:22.994Z,65.10
2018-04-06T07:24:52.016Z,64.89
2018-04-06T07:27:21.029Z,64.74
2018-04-06T07:29:49.291Z,64.69
2018-04-06T07:32:17.575Z,63.88
2018-04-06T07:34:45.829Z,64.15
2018-04-06T07:37:14.088Z,63.77
2018-04-06T07:39:42.345Z,63.51
2018-04-06T07:42:10.579Z,62.25
2018-04-06T07:44:38.821Z,60.68
2018-04-06T07:47:07.097Z,59.85
2018-04-06T07:49:35.339Z,60.13
2018-04-06T07:52:03.601Z,59.29
2018-04-06T07:54:32.611Z,58.77
2018-04-06T07:57:01.710Z,57.71
2018-04-06T07:59:29.961Z,57.54
2018-04-06T08:01:58.220Z,57.90
2018-04-06T08:04:26.481Z,56.60
2018-04-06T08:06:56.265Z,55.52
2018-04-06T08:09:24.649Z,55.96
2018-04-06T08:11:52.992Z,55.24
2018-04-06T08:14:22.002Z,56.82
2018-04-06T08:16:50.232Z,55.92
2018-04-06T08:19:18.477Z,56.86
2018-04-06T08:21:47.472Z,55.21
2018-04-06T08:24:16.581Z,54.13
2018-04-06T08:26:45.592Z,52.74
2018-04-06T08:29:14.629Z,53.72
2018-04-06T08:31:42.861Z,52.74
2018-04-06T08:34:11.182Z,52.66
2018-04-06T08:36:40.172Z,51.33
2018-04-06T08:39:09.191Z,50.99
2018-04-06T08:41:38.187Z,50.81
2018-04-06T08:44:07.994Z,50.30
2018-04-06T08:46:36.377Z,50.16
2018-04-06T08:49:04.632Z,48.97
2018-04-06T08:51:32.873Z,49.82
2018-04-06T08:54:01.141Z,48.92
2018-04-06T08:56:29.392Z,48.23
2018-04-06T08:58:57.674Z,48.56
2018-04-06T09:01:26.107Z,47.41
2018-04-06T09:03:54.477Z,47.85
2018-04-06T09:06:22.777Z,48.12
2018-04-06T09:08:51.020Z,47.83
2018-04-06T09:11:20.038Z,47.02
2018-04-06T09:13:48.324Z,47.67
2018-04-06T09:16:17.330Z,48.50
2018-04-06T09:18:46.373Z,46.89
2018-04-06T09:21:14.659Z,47.83
2018-04-06T09:23:42.912Z,46.56
2018-04-06T09:26:11.216Z,47.77
2018-04-06T09:28:40.243Z,46.69
2018-04-06T09:31:08.474Z,47.46
2018-04-06T09:33:36.749Z,47.55
2018-04-06T09:36:05.090Z,47.41
2018-04-06T09:38:33.390Z,47.00
2018-04-06T09:41:02.361Z,46.53
2018-04-06T09:43:31.385Z,47.54
2018-04-06T09:46:00.428Z,45.27
2018-04-06T09:48:28.688Z,46.83
2018-04-06T09:50:57.804Z,46.28
2018-04-06T09:53:26.072Z,46.00
2018-04-06T09:55:54.348Z,45.49
2018-04-06T09:58:23.366Z,45.81
2018-04-06T10:00:58.014Z,45.33
2018-04-06T10:03:26.290Z,44.85
2018-04-06T10:05:55.380Z,44.89
2018-04-06T10:08:23.735Z,43.27
2018-04-06T10:10:52.010Z,43.03
2018-04-06T10:13:20.249Z,42.33
2018-04-06T10:15:48.526Z,43.31
2018-04-06T10:18:16.771Z,42.68
2018-04-06T10:20:45.028Z,41.48
2018-04-06T10:23:14.417Z,41.62
2018-04-06T10:25:42.674Z,42.43
2018-04-06T10:28:10.912Z,40.92
2018-04-06T10:30:39.172Z,40.72
2018-04-06T10:33:07.505Z,40.24
2018-04-06T10:35:36.541Z,40.42
2018-04-06T10:38:04.774Z,40.31
2018-04-06T10:40:33.115Z,40.28
2018-04-06T10:43:01.323Z,40.83
2018-04-06T10:45:29.603Z,39.85
2018-04-06T10:47:57.897Z,39.54
2018-04-06T10:50:26.195Z,40.37
2018-04-06T10:52:54.459Z,40.15
2018-04-06T10:55:22.722Z,38.51
2018-04-06T10:57:50.981Z,39.52
2018-04-06T11:00:20.210Z,39.55
2018-04-06T11:02:48.485Z,39.99
2018-04-06T11:05:16.738Z,39.44
2018-04-06T11:07:45.018Z,40.48
2018-04-06T11:10:13.307Z,39.10
2018-04-06T11:12:41.532Z,38.35
2018-04-06T11:15:10.532Z,37.65
2018-04-06T11:17:38.806Z,36.83
2018-04-06T11:20:08.175Z,38.74
2018-04-06T11:22:37.240Z,38.82
2018-04-06T11:25:05.475Z,38.35
2018-04-06T11:27:34.527Z,38.03
2018-04-06T11:30:02.787Z,38.51
2018-04-06T11:32:31.080Z,38.86
2018-04-06T11:35:00.160Z,37.62
2018-04-06T11:37:28.465Z,37.18
2018-04-06T11:39:56.718Z,37.24
2018-04-06T11:42:25.018Z,36.62
2018-04-06T11:44:53.293Z,37.59
2018-04-06T11:47:21.545Z,36.65
2018-04-06T11:49:49.784Z,36.90
2018-04-06T11:52:18.065Z,37.02
2018-04-06T11:54:46.306Z,37.76
2018-04-06T11:57:14.578Z,38.11
2018-04-06T11:59:43.625Z,36.54
2018-04-06T12:02:12.611Z,35.85
2018-04-06T12:04:40.843Z,34.77
2018-04-06T12:07:09.115Z,35.63
2018-04-06T12:09:37.358Z,35.44
2018-04-06T12:12:05.619Z,35.81
2018-04-06T12:14:34.008Z,35.88
2018-04-06T12:17:02.262Z,35.42
2018-04-06T12:19:30.508Z,36.63
2018-04-06T12:21:59.544Z,35.42
2018-04-06T12:24:27.804Z,34.77
2018-04-06T12:26:56.865Z,35.18
2018-04-06T12:29:25.177Z,35.92
2018-04-06T12:31:54.213Z,35.84
2018-04-06T12:34:22.509Z,35.99
2018-04-06T12:36:50.736Z,34.57
2018-04-06T12:39:18.994Z,34.87
2018-04-06T12:41:47.247Z,35.42
2018-04-06T12:44:15.558Z,34.87
2018-04-06T12:46:44.556Z,35.29
2018-04-06T12:49:13.585Z,34.90
2018-04-06T12:51:42.599Z,34.95
2018-04-06T12:54:10.854Z,35.33
2018-04-06T12:56:39.864Z,35.72
2018-04-06T12:59:08.897Z,35.29
2018-04-06T13:01:37.133Z,35.38
2018-04-06T13:04:05.426Z,35.04
2018-04-06T13:06:33.682Z,35.79
2018-04-06T13:09:01.966Z,36.50
2018-04-06T13:11:30.210Z,35.34
2018-04-06T13:13:59.656Z,35.55
2018-04-06T13:16:28.042Z,35.96
2018-04-06T13:18:56.313Z,35.13
2018-04-06T13:21:25.357Z,35.10
2018-04-06T13:23:53.626Z,35.54
2018-04-06T13:26:21.854Z,34.92
2018-04-06T13:28:50.111Z,35.23
2018-04-06T13:31:18.357Z,34.51
2018-04-06T13:33:46.601Z,35.07
2018-04-06T13:36:14.846Z,33.98
2018-04-06T13:38:43.881Z,34.98
2018-04-06T13:41:12.121Z,35.18
2018-04-06T13:43:40.357Z,34.84
2018-04-06T13:46:08.623Z,34.36
2018-04-06T13:48:37.689Z,35.06
2018-04-06T13:51:05.946Z,34.12
2018-04-06T13:53:34.193Z,34.61
2018-04-06T13:56:03.220Z,34.37
2018-04-06T13:58:32.210Z,34.75
2018-04-06T14:01:01.326Z,33.85
2018-04-06T14:03:29.632Z,34.52
2018-04-06T14:05:57.905Z,34.61
2018-04-06T14:08:27.954Z,34.76
2018-04-06T14:10:56.226Z,34.53
2018-04-06T14:13:25.256Z,35.06
2018-04-06T14:15:53.589Z,35.44
2018-04-06T14:18:21.843Z,34.56
2018-04-06T14:20:50.104Z,34.94
2018-04-06T14:23:18.340Z,35.11
2018-04-06T14:25:46.626Z,35.69
2018-04-06T14:28:14.861Z,35.10
2018-04-06T14:30:43.892Z,34.72
2018-04-06T14:33:12.161Z,34.54
2018-04-06T14:35:41.180Z,34.94
2018-04-06T14:38:09.437Z,35.08
2018-04-06T14:40:37.699Z,34.54
2018-04-06T14:43:05.940Z,34.30
2018-04-06T14:45:34.216Z,34.24
2018-04-06T14:48:03.226Z,34.84
2018-04-06T14:50:32.271Z,34.04
2018-04-06T14:53:01.354Z,34.33
2018-04-06T14:55:30.478Z,34.54
2018-04-06T14:57:58.740Z,34.11
2018-04-06T15:00:27.737Z,33.98
2018-04-06T15:02:56.052Z,34.39
2018-04-06T15:05:24.314Z,33.44
2018-04-06T15:07:53.358Z,33.15
2018-04-06T15:10:21.605Z,32.86
2018-04-06T15:12:49.873Z,33.47
2018-04-06T15:15:18.108Z,33.14
2018-04-06T15:17:46.373Z,32.95
2018-04-06T15:20:14.646Z,32.78
2018-04-06T15:22:42.929Z,32.86
2018-04-06T15:25:11.177Z,33.18
2018-04-06T15:27:39.433Z,32.86
2018-04-06T15:30:07.721Z,32.92
2018-04-06T15:32:35.974Z,32.58
2018-04-06T15:35:04.214Z,32.10
2018-04-06T15:37:33.241Z,32.11
2018-04-06T15:40:01.507Z,32.90
2018-04-06T15:42:30.686Z,32.85
2018-04-06T15:44:58.884Z,33.41
2018-04-06T15:47:27.146Z,32.85
2018-04-06T15:49:55.393Z,33.19
2018-04-06T15:52:24.418Z,33.18
2018-04-06T15:54:52.677Z,32.51
2018-04-06T15:57:21.701Z,33.79
2018-04-06T15:59:49.984Z,33.34
2018-04-06T16:02:19.012Z,33.52
2018-04-06T16:04:47.326Z,33.39
2018-04-06T16:07:15.610Z,33.28
2018-04-06T16:09:43.851Z,33.73
2018-04-06T16:12:12.873Z,33.51
2018-04-06T16:14:41.133Z,34.07
2018-04-06T16:17:10.276Z,33.93
2018-04-06T16:19:38.541Z,33.82
2018-04-06T16:22:07.580Z,34.24
2018-04-06T16:24:35.872Z,34.90
2018-04-06T16:27:04.864Z,34.80
2018-04-06T16:29:33.180Z,34.68
2018-04-06T16:32:02.197Z,35.10
2018-04-06T16:34:30.473Z,35.01
2018-04-06T16:36:59.501Z,35.33
2018-04-06T16:39:27.788Z,35.56
2018-04-06T16:41:56.016Z,36.03
2018-04-06T16:44:24.293Z,35.78
2018-04-06T16:46:53.306Z,36.02
2018-04-06T16:49:22.349Z,35.85
2018-04-06T16:51:50.596Z,36.09
2018-04-06T16:54:19.610Z,35.88
2018-04-06T16:56:48.632Z,36.08
2018-04-06T16:59:17.806Z,36.31
2018-04-06T17:01:45.914Z,36.75
2018-04-06T17:04:15.039Z,37.08
2018-04-06T17:06:43.308Z,37.16
2018-04-06T17:09:12.338Z,37.42
2018-04-06T17:11:40.588Z,37.59
2018-04-06T17:14:08.862Z,38.62
2018-04-06T17:16:37.140Z,38.04
2018-04-06T17:19:05.520Z,36.11
2018-04-06T17:21:33.765Z,35.21
2018-04-06T17:24:03.609Z,35.77
2018-04-06T17:26:31.858Z,37.03
2018-04-06T17:29:00.119Z,37.09
2018-04-06T17:31:28.354Z,38.19
2018-04-06T17:33:57.385Z,39.04
2018-04-06T17:36:25.625Z,39.77
2018-04-06T17:38:53.897Z,40.31
2018-04-06T17:41:22.988Z,40.44
2018-04-06T17:43:51.260Z,40.94
2018-04-06T17:46:19.531Z,41.21
2018-04-06T17:48:47.795Z,41.54
2018-04-06T17:51:16.056Z,41.84
2018-04-06T17:53:44.306Z,42.12
2018-04-06T17:56:12.577Z,42.42
2018-04-06T17:58:41.620Z,42.86
2018-04-06T18:01:09.892Z,43.01
2018-04-06T18:03:38.128Z,43.40
2018-04-06T18:06:06.386Z,43.61
2018-04-06T18:08:34.629Z,43.65
2018-04-06T18:11:02.880Z,43.99
2018-04-06T18:13:31.112Z,44.00
2018-04-06T18:16:00.889Z,44.35
2018-04-06T18:18:29.141Z,44.56
2018-04-06T18:20:58.160Z,44.73
2018-04-06T18:23:26.417Z,44.80
2018-04-06T18:25:54.669Z,44.38
2018-04-06T18:28:22.948Z,44.67
2018-04-06T18:30:51.219Z,44.61
2018-04-06T18:33:19.469Z,45.57
2018-04-06T18:35:47.739Z,44.92
2018-04-06T18:38:16.002Z,44.97
2018-04-06T18:40:44.331Z,45.17
2018-04-06T18:43:12.606Z,45.39
2018-04-06T18:45:40.856Z,45.55
2018-04-06T18:48:09.116Z,46.17
2018-04-06T18:50:38.128Z,46.43
2018-04-06T18:53:06.386Z,45.73
2018-04-06T18:55:34.644Z,45.87
2018-04-06T18:58:02.939Z,46.18
2018-04-06T19:00:31.206Z,46.36
2018-04-06T19:02:59.452Z,46.45
2018-04-06T19:05:28.514Z,46.82
2018-04-06T19:07:56.755Z,46.47
2018-04-06T19:10:25.782Z,47.15
2018-04-06T19:12:54.025Z,47.35
2018-04-06T19:15:23.046Z,47.35
2018-04-06T19:17:51.325Z,47.55
2018-04-06T19:20:19.608Z,47.98
2018-04-06T19:22:47.892Z,48.10
2018-04-06T19:25:16.139Z,48.68
2018-04-06T19:27:44.404Z,48.71
2018-04-06T19:30:13.413Z,48.86
2018-04-06T19:32:42.447Z,48.77
2018-04-06T19:35:10.694Z,49.47
2018-04-06T19:37:38.958Z,49.50
2018-04-06T19:40:07.210Z,49.56
2018-04-06T19:42:35.473Z,49.80
2018-04-06T19:45:04.499Z,49.76
2018-04-06T19:47:32.774Z,50.50
2018-04-06T19:50:03.778Z,50.80
2018-04-06T19:52:32.038Z,50.52
2018-04-06T19:55:00.293Z,49.75
2018-04-06T19:57:28.562Z,50.25
2018-04-06T19:59:56.808Z,50.35
2018-04-06T20:02:25.082Z,51.12
2018-04-06T20:04:53.313Z,51.39
2018-04-06T20:07:21.616Z,51.43
2018-04-06T20:09:49.875Z,51.74
2018-04-06T20:12:18.199Z,51.52
2018-04-06T20:14:46.466Z,51.58
2018-04-06T20:17:14.805Z,51.76
2018-04-06T20:19:43.845Z,51.71
2018-04-06T20:22:12.133Z,51.63
2018-04-06T20:24:40.394Z,51.77
2018-04-06T20:27:08.647Z,52.38
2018-04-06T20:29:36.882Z,52.47
2018-04-06T20:32:05.185Z,52.10
2018-04-06T20:34:33.422Z,52.43
2018-04-06T20:37:01.677Z,51.96
2018-04-06T20:39:29.921Z,52.12
2018-04-06T20:41:58.929Z,52.48
2018-04-06T20:44:27.954Z,52.01
2018-04-06T20:46:56.207Z,52.09
2018-04-06T20:49:25.278Z,52.25
2018-04-06T20:51:53.539Z,52.58
2018-04-06T20:54:21.795Z,52.59
2018-04-06T20:56:50.088Z,53.04
2018-04-06T20:59:19.184Z,52.82
2018-04-06T21:01:47.431Z,53.40
2018-04-06T21:04:15.872Z,52.92
2018-04-06T21:06:44.259Z,53.11
2018-04-06T21:09:12.525Z,53.22
2018-04-06T21:11:40.788Z,53.12
2018-04-06T21:14:09.059Z,53.02
2018-04-06T21:16:38.043Z,53.34
2018-04-06T21:19:07.052Z,53.98
2018-04-06T21:21:36.049Z,53.75
2018-04-06T21:24:04.312Z,53.81
2018-04-06T21:26:32.567Z,54.00
2018-04-06T21:29:00.809Z,54.32
2018-04-06T21:31:29.140Z,53.90
2018-04-06T21:33:58.129Z,54.13
2018-04-06T21:36:27.152Z,53.85
2018-04-06T21:38:55.393Z,53.77
2018-04-06T21:41:23.637Z,53.91
2018-04-06T21:43:51.886Z,54.25
2018-04-06T21:46:20.128Z,54.51
2018-04-06T21:48:48.401Z,54.92
2018-04-06T21:51:16.641Z,55.02
2018-04-06T21:53:45.731Z,54.70
2018-04-06T21:56:13.985Z,54.86
2018-04-06T21:58:42.283Z,54.74
2018-04-06T22:01:10.553Z,54.63
2018-04-06T22:03:38.818Z,54.69
2018-04-06T22:06:07.819Z,54.69
2018-04-06T22:08:36.889Z,54.88
2018-04-06T22:11:05.112Z,55.41
2018-04-06T22:13:33.400Z,54.93
2018-04-06T22:16:02.628Z,55.38
2018-04-06T22:18:32.560Z,55.12
2018-04-06T22:21:01.592Z,55.72
2018-04-06T22:23:29.897Z,56.13
2018-04-06T22:25:58.923Z,55.43
2018-04-06T22:28:27.164Z,55.20
2018-04-06T22:30:55.397Z,55.54
2018-04-06T22:33:23.633Z,55.31
2018-04-06T22:35:51.914Z,55.82
2018-04-06T22:38:20.928Z,55.83
2018-04-06T22:40:49.946Z,55.68
2018-04-06T22:43:19.320Z,56.54
2018-04-06T22:45:47.579Z,56.25
2018-04-06T22:48:15.850Z,56.80
2018-04-06T22:50:44.122Z,57.10
2018-04-06T22:53:12.416Z,56.98
2018-04-06T22:55:40.658Z,56.70
2018-04-06T22:58:08.894Z,57.27
2018-04-06T23:00:37.145Z,57.56
2018-04-06T23:03:05.398Z,57.70
2018-04-06T23:05:33.667Z,56.93
2018-04-06T23:08:01.905Z,57.43
2018-04-06T23:10:30.164Z,57.98
2018-04-06T23:12:58.421Z,57.50
2018-04-06T23:15:26.689Z,58.34
2018-04-06T23:17:54.937Z,57.94
2018-04-06T23:20:23.207Z,57.88
2018-04-06T23:22:51.438Z,58.56
2018-04-06T23:25:19.688Z,58.40
2018-04-06T23:27:48.687Z,58.67
2018-04-06T23:30:16.960Z,58.33
2018-04-06T23:32:45.971Z,58.86
2018-04-06T23:35:14.999Z,59.07
2018-04-06T23:37:43.269Z,59.39
2018-04-06T23:40:12.309Z,58.43
2018-04-06T23:42:40.539Z,59.72
2018-04-06T23:45:09.535Z,59.90
2018-04-06T23:47:37.814Z,59.73
2018-04-06T23:50:06.042Z,60.21
2018-04-06T23:52:34.293Z,59.90
2018-04-06T23:55:02.530Z,60.36
2018-04-06T23:57:30.804Z,60.21
2018-04-06T23:59:59.800Z,60.67
